sensor_id;sensor_type;location;lat;lon;timestamp;temperature;humidity
6520;DHT22;3293;51.690;5.982;2022-07-06T00:00:12;12.60;99.90
6520;DHT22;3293;51.690;5.982;2022-07-06T00:05:12;12.50;99.90
6520;DHT22;3293;51.690;5.982;2022-07-06T00:10:12;12.40;99.90
6520;DHT22;3293;51.690;5.982;2022-07-06T00:15:12;12.40;99.90
6520;DHT22;3293;51.690;5.982;2022-07-06T00:20:12;12.30;99.90
6520;DHT22;3293;51.690;5.982;2022-07-06T00:25:12;12.30;99.90
6520;DHT22;3293;51.690;5.982;2022-07-06T00:30:12;12.30;99.90
6520;DHT22;3293;51.690;5.982;2022-07-06T00:35:12;12.20;99.90
6520;DHT22;3293;51.690;5.982;2022-07-06T00:40:12;12.10;99.90
6520;DHT22;3293;51.690;5.982;2022-07-06T00:45:14;12.10;99.90
6520;DHT22;3293;51.690;5.982;2022-07-06T00:50:16;12.00;99.90
6520;DHT22;3293;51.690;5.982;2022-07-06T00:55:25;12.00;99.90
6520;DHT22;3293;51.690;5.982;2022-07-06T01:00:27;11.90;99.90
6520;DHT22;3293;51.690;5.982;2022-07-06T01:05:27;11.90;99.90
6520;DHT22;3293;51.690;5.982;2022-07-06T01:10:27;11.90;99.90
6520;DHT22;3293;51.690;5.982;2022-07-06T01:15:27;11.80;99.90
6520;DHT22;3293;51.690;5.982;2022-07-06T01:20:27;11.80;99.90
6520;DHT22;3293;51.690;5.982;2022-07-06T01:25:28;11.70;99.90
6520;DHT22;3293;51.690;5.982;2022-07-06T01:30:28;11.70;99.90
6520;DHT22;3293;51.690;5.982;2022-07-06T01:35:29;11.60;99.90
6520;DHT22;3293;51.690;5.982;2022-07-06T01:40:31;11.60;99.90
6520;DHT22;3293;51.690;5.982;2022-07-06T01:45:31;11.50;99.90
6520;DHT22;3293;51.690;5.982;2022-07-06T01:50:32;11.50;99.90
6520;DHT22;3293;51.690;5.982;2022-07-06T01:55:32;11.50;99.90
6520;DHT22;3293;51.690;5.982;2022-07-06T02:00:32;11.50;99.90
6520;DHT22;3293;51.690;5.982;2022-07-06T02:05:32;11.40;99.90
6520;DHT22;3293;51.690;5.982;2022-07-06T02:10:32;11.30;99.90
6520;DHT22;3293;51.690;5.982;2022-07-06T02:15:32;11.30;99.90
6520;DHT22;3293;51.690;5.982;2022-07-06T02:20:31;11.30;99.90
6520;DHT22;3293;51.690;5.982;2022-07-06T02:25:32;11.30;99.90
6520;DHT22;3293;51.690;5.982;2022-07-06T02:30:32;11.20;99.90
6520;DHT22;3293;51.690;5.982;2022-07-06T02:35:32;11.20;99.90
6520;DHT22;3293;51.690;5.982;2022-07-06T02:40:32;11.20;99.90
6520;DHT22;3293;51.690;5.982;2022-07-06T02:45:32;11.20;99.90
6520;DHT22;3293;51.690;5.982;2022-07-06T02:50:32;11.10;99.90
6520;DHT22;3293;51.690;5.982;2022-07-06T02:55:32;11.00;99.90
6520;DHT22;3293;51.690;5.982;2022-07-06T03:00:32;11.00;99.90
6520;DHT22;3293;51.690;5.982;2022-07-06T03:05:32;10.90;99.90
6520;DHT22;3293;51.690;5.982;2022-07-06T03:10:32;10.80;99.90
6520;DHT22;3293;51.690;5.982;2022-07-06T03:15:32;10.80;99.90
6520;DHT22;3293;51.690;5.982;2022-07-06T03:20:32;10.80;99.90
6520;DHT22;3293;51.690;5.982;2022-07-06T03:25:32;10.80;99.90
6520;DHT22;3293;51.690;5.982;2022-07-06T03:30:32;10.70;99.90
6520;DHT22;3293;51.690;5.982;2022-07-06T03:35:32;10.70;99.90
6520;DHT22;3293;51.690;5.982;2022-07-06T03:40:33;10.70;99.90
6520;DHT22;3293;51.690;5.982;2022-07-06T03:45:33;10.70;99.90
6520;DHT22;3293;51.690;5.982;2022-07-06T03:50:32;10.80;99.90
6520;DHT22;3293;51.690;5.982;2022-07-06T03:55:32;10.80;99.90
6520;DHT22;3293;51.690;5.982;2022-07-06T04:00:32;10.80;99.90
6520;DHT22;3293;51.690;5.982;2022-07-06T04:05:34;10.90;99.90
6520;DHT22;3293;51.690;5.982;2022-07-06T04:10:33;11.00;99.90
6520;DHT22;3293;51.690;5.982;2022-07-06T04:15:33;11.10;99.90
6520;DHT22;3293;51.690;5.982;2022-07-06T04:20:33;11.10;99.90
6520;DHT22;3293;51.690;5.982;2022-07-06T04:25:34;11.20;99.90
6520;DHT22;3293;51.690;5.982;2022-07-06T04:30:34;11.40;99.90
6520;DHT22;3293;51.690;5.982;2022-07-06T04:35:34;11.50;99.90
6520;DHT22;3293;51.690;5.982;2022-07-06T04:40:34;11.60;99.90
6520;DHT22;3293;51.690;5.982;2022-07-06T04:45:34;11.60;99.90
6520;DHT22;3293;51.690;5.982;2022-07-06T04:50:34;11.60;99.90
6520;DHT22;3293;51.690;5.982;2022-07-06T04:55:34;12.10;99.90
6520;DHT22;3293;51.690;5.982;2022-07-06T05:00:34;13.00;99.90
6520;DHT22;3293;51.690;5.982;2022-07-06T05:05:34;13.50;99.90
6520;DHT22;3293;51.690;5.982;2022-07-06T05:10:33;13.90;99.90
6520;DHT22;3293;51.690;5.982;2022-07-06T05:15:33;14.40;99.90
6520;DHT22;3293;51.690;5.982;2022-07-06T05:20:34;16.80;99.90
6520;DHT22;3293;51.690;5.982;2022-07-06T05:25:33;18.20;99.90
6520;DHT22;3293;51.690;5.982;2022-07-06T05:30:33;17.30;99.90
6520;DHT22;3293;51.690;5.982;2022-07-06T05:35:33;16.30;99.90
6520;DHT22;3293;51.690;5.982;2022-07-06T05:40:33;15.70;99.90
6520;DHT22;3293;51.690;5.982;2022-07-06T05:45:33;15.50;99.90
6520;DHT22;3293;51.690;5.982;2022-07-06T05:50:33;15.40;99.90
6520;DHT22;3293;51.690;5.982;2022-07-06T05:55:33;15.20;99.90
6520;DHT22;3293;51.690;5.982;2022-07-06T06:00:33;15.40;99.90
6520;DHT22;3293;51.690;5.982;2022-07-06T06:05:33;15.60;99.90
6520;DHT22;3293;51.690;5.982;2022-07-06T06:10:33;15.80;99.90
6520;DHT22;3293;51.690;5.982;2022-07-06T06:15:34;15.90;99.90
6520;DHT22;3293;51.690;5.982;2022-07-06T06:20:34;15.90;99.90
6520;DHT22;3293;51.690;5.982;2022-07-06T06:25:38;19.60;99.50
6520;DHT22;3293;51.690;5.982;2022-07-06T06:30:39;23.00;82.40
6520;DHT22;3293;51.690;5.982;2022-07-06T06:35:43;24.20;65.70
6520;DHT22;3293;51.690;5.982;2022-07-06T06:40:43;24.50;61.30
6520;DHT22;3293;51.690;5.982;2022-07-06T06:45:43;25.30;57.10
6520;DHT22;3293;51.690;5.982;2022-07-06T06:50:45;26.70;50.40
6520;DHT22;3293;51.690;5.982;2022-07-06T06:55:45;27.80;46.50
6520;DHT22;3293;51.690;5.982;2022-07-06T07:00:45;27.70;42.50
6520;DHT22;3293;51.690;5.982;2022-07-06T07:05:47;28.00;40.30
6520;DHT22;3293;51.690;5.982;2022-07-06T07:10:48;28.80;39.30
6520;DHT22;3293;51.690;5.982;2022-07-06T07:15:48;28.40;39.30
6520;DHT22;3293;51.690;5.982;2022-07-06T07:20:47;27.80;38.40
6520;DHT22;3293;51.690;5.982;2022-07-06T07:25:47;26.40;42.90
6520;DHT22;3293;51.690;5.982;2022-07-06T07:30:47;25.90;46.60
6520;DHT22;3293;51.690;5.982;2022-07-06T07:35:47;25.10;48.60
6520;DHT22;3293;51.690;5.982;2022-07-06T07:40:47;23.40;56.20
6520;DHT22;3293;51.690;5.982;2022-07-06T07:45:48;21.50;64.10
6520;DHT22;3293;51.690;5.982;2022-07-06T07:50:47;20.60;70.30
6520;DHT22;3293;51.690;5.982;2022-07-06T07:55:47;20.00;75.40
6520;DHT22;3293;51.690;5.982;2022-07-06T08:00:47;22.40;63.00
6520;DHT22;3293;51.690;5.982;2022-07-06T08:05:47;24.90;48.80
6520;DHT22;3293;51.690;5.982;2022-07-06T08:10:47;25.20;43.10
6520;DHT22;3293;51.690;5.982;2022-07-06T08:15:47;25.10;45.50
6520;DHT22;3293;51.690;5.982;2022-07-06T08:20:47;23.40;51.00
6520;DHT22;3293;51.690;5.982;2022-07-06T08:25:48;21.90;56.40
6520;DHT22;3293;51.690;5.982;2022-07-06T08:30:48;21.60;61.40
6520;DHT22;3293;51.690;5.982;2022-07-06T08:35:48;23.60;55.00
6520;DHT22;3293;51.690;5.982;2022-07-06T08:40:49;26.30;46.30
6520;DHT22;3293;51.690;5.982;2022-07-06T08:45:50;27.90;35.20
6520;DHT22;3293;51.690;5.982;2022-07-06T08:50:54;27.90;37.00
6520;DHT22;3293;51.690;5.982;2022-07-06T08:55:54;25.90;40.80
6520;DHT22;3293;51.690;5.982;2022-07-06T09:00:55;23.80;51.10
6520;DHT22;3293;51.690;5.982;2022-07-06T09:05:59;22.40;57.50
6520;DHT22;3293;51.690;5.982;2022-07-06T09:11:01;21.60;60.90
6520;DHT22;3293;51.690;5.982;2022-07-06T09:16:11;24.20;53.40
6520;DHT22;3293;51.690;5.982;2022-07-06T09:21:11;26.60;40.10
6520;DHT22;3293;51.690;5.982;2022-07-06T09:26:11;27.00;32.20
6520;DHT22;3293;51.690;5.982;2022-07-06T09:31:11;25.20;37.40
6520;DHT22;3293;51.690;5.982;2022-07-06T09:36:11;23.80;45.10
6520;DHT22;3293;51.690;5.982;2022-07-06T09:41:11;25.00;41.50
6520;DHT22;3293;51.690;5.982;2022-07-06T09:46:14;27.50;31.70
6520;DHT22;3293;51.690;5.982;2022-07-06T09:51:15;27.30;29.40
6520;DHT22;3293;51.690;5.982;2022-07-06T09:56:17;25.90;32.50
6520;DHT22;3293;51.690;5.982;2022-07-06T10:01:27;26.40;32.00
6520;DHT22;3293;51.690;5.982;2022-07-06T10:06:29;26.60;32.50
6520;DHT22;3293;51.690;5.982;2022-07-06T10:11:29;27.10;34.20
6520;DHT22;3293;51.690;5.982;2022-07-06T10:16:30;26.80;31.30
6520;DHT22;3293;51.690;5.982;2022-07-06T10:21:31;26.00;32.40
6520;DHT22;3293;51.690;5.982;2022-07-06T10:26:32;25.10;33.50
6520;DHT22;3293;51.690;5.982;2022-07-06T10:31:37;24.80;36.50
6520;DHT22;3293;51.690;5.982;2022-07-06T10:36:40;25.10;34.40
6520;DHT22;3293;51.690;5.982;2022-07-06T10:41:40;25.20;36.10
6520;DHT22;3293;51.690;5.982;2022-07-06T10:46:40;24.70;36.20
6520;DHT22;3293;51.690;5.982;2022-07-06T10:51:40;24.30;35.90
6520;DHT22;3293;51.690;5.982;2022-07-06T10:56:43;24.20;37.20
6520;DHT22;3293;51.690;5.982;2022-07-06T11:02:17;24.10;37.90
6520;DHT22;3293;51.690;5.982;2022-07-06T11:07:19;23.90;39.50
6520;DHT22;3293;51.690;5.982;2022-07-06T11:12:20;23.60;40.90
6520;DHT22;3293;51.690;5.982;2022-07-06T11:17:20;23.50;41.20
6520;DHT22;3293;51.690;5.982;2022-07-06T11:22:20;23.60;43.10
6520;DHT22;3293;51.690;5.982;2022-07-06T11:27:22;23.60;40.30
6520;DHT22;3293;51.690;5.982;2022-07-06T11:32:26;23.70;42.50
6520;DHT22;3293;51.690;5.982;2022-07-06T11:37:26;23.90;39.40
6520;DHT22;3293;51.690;5.982;2022-07-06T11:42:26;23.20;40.60
6520;DHT22;3293;51.690;5.982;2022-07-06T11:47:31;23.20;42.50
6520;DHT22;3293;51.690;5.982;2022-07-06T11:52:31;22.80;45.20
6520;DHT22;3293;51.690;5.982;2022-07-06T11:57:32;22.90;45.40
6520;DHT22;3293;51.690;5.982;2022-07-06T12:02:32;22.70;50.00
6520;DHT22;3293;51.690;5.982;2022-07-06T12:07:32;23.10;44.60
6520;DHT22;3293;51.690;5.982;2022-07-06T12:12:32;23.10;45.00
6520;DHT22;3293;51.690;5.982;2022-07-06T12:17:32;23.20;45.00
6520;DHT22;3293;51.690;5.982;2022-07-06T12:22:32;23.30;41.00
6520;DHT22;3293;51.690;5.982;2022-07-06T12:27:34;23.10;45.80
6520;DHT22;3293;51.690;5.982;2022-07-06T12:32:34;22.90;42.90
6520;DHT22;3293;51.690;5.982;2022-07-06T12:37:36;23.20;43.10
6520;DHT22;3293;51.690;5.982;2022-07-06T12:42:46;23.50;43.90
6520;DHT22;3293;51.690;5.982;2022-07-06T12:48:05;22.90;42.80
6520;DHT22;3293;51.690;5.982;2022-07-06T12:53:12;22.80;45.20
6520;DHT22;3293;51.690;5.982;2022-07-06T12:58:22;22.30;49.50
6520;DHT22;3293;51.690;5.982;2022-07-06T13:03:22;22.80;47.10
6520;DHT22;3293;51.690;5.982;2022-07-06T13:08:22;23.50;42.50
6520;DHT22;3293;51.690;5.982;2022-07-06T13:13:22;23.80;41.90
6520;DHT22;3293;51.690;5.982;2022-07-06T13:18:22;24.10;42.10
6520;DHT22;3293;51.690;5.982;2022-07-06T13:23:23;23.90;40.40
6520;DHT22;3293;51.690;5.982;2022-07-06T13:28:23;23.80;44.60
6520;DHT22;3293;51.690;5.982;2022-07-06T13:33:23;23.80;42.10
6520;DHT22;3293;51.690;5.982;2022-07-06T13:38:23;23.60;40.60
6520;DHT22;3293;51.690;5.982;2022-07-06T13:43:23;23.80;42.70
6520;DHT22;3293;51.690;5.982;2022-07-06T13:48:23;24.10;39.40
6520;DHT22;3293;51.690;5.982;2022-07-06T13:53:23;24.20;42.00
6520;DHT22;3293;51.690;5.982;2022-07-06T13:58:23;24.20;38.70
6520;DHT22;3293;51.690;5.982;2022-07-06T14:03:23;24.20;39.70
6520;DHT22;3293;51.690;5.982;2022-07-06T14:08:29;24.20;40.30
6520;DHT22;3293;51.690;5.982;2022-07-06T14:13:29;24.20;42.20
6520;DHT22;3293;51.690;5.982;2022-07-06T14:18:30;24.30;40.90
6520;DHT22;3293;51.690;5.982;2022-07-06T14:23:30;24.50;39.60
6520;DHT22;3293;51.690;5.982;2022-07-06T14:28:30;24.20;40.70
6520;DHT22;3293;51.690;5.982;2022-07-06T14:33:30;23.90;45.80
6520;DHT22;3293;51.690;5.982;2022-07-06T14:38:30;23.80;42.20
6520;DHT22;3293;51.690;5.982;2022-07-06T14:43:29;23.80;41.90
6520;DHT22;3293;51.690;5.982;2022-07-06T14:48:29;23.70;41.40
6520;DHT22;3293;51.690;5.982;2022-07-06T14:53:29;23.40;42.20
6520;DHT22;3293;51.690;5.982;2022-07-06T14:58:30;23.40;44.50
6520;DHT22;3293;51.690;5.982;2022-07-06T15:03:30;23.60;40.10
6520;DHT22;3293;51.690;5.982;2022-07-06T15:08:30;23.40;43.10
6520;DHT22;3293;51.690;5.982;2022-07-06T15:13:30;23.50;41.20
6520;DHT22;3293;51.690;5.982;2022-07-06T15:18:30;23.50;40.70
6520;DHT22;3293;51.690;5.982;2022-07-06T15:23:30;23.60;41.10
6520;DHT22;3293;51.690;5.982;2022-07-06T15:28:30;23.60;40.60
6520;DHT22;3293;51.690;5.982;2022-07-06T15:33:30;23.80;41.00
6520;DHT22;3293;51.690;5.982;2022-07-06T15:38:30;24.00;39.40
6520;DHT22;3293;51.690;5.982;2022-07-06T15:43:30;24.00;40.20
6520;DHT22;3293;51.690;5.982;2022-07-06T15:48:31;24.00;43.80
6520;DHT22;3293;51.690;5.982;2022-07-06T15:53:32;24.20;42.50
6520;DHT22;3293;51.690;5.982;2022-07-06T15:58:32;24.20;41.90
6520;DHT22;3293;51.690;5.982;2022-07-06T16:03:32;23.80;42.20
6520;DHT22;3293;51.690;5.982;2022-07-06T16:08:32;23.40;43.40
6520;DHT22;3293;51.690;5.982;2022-07-06T16:13:32;23.40;44.90
6520;DHT22;3293;51.690;5.982;2022-07-06T16:18:32;23.40;45.40
6520;DHT22;3293;51.690;5.982;2022-07-06T16:23:34;23.10;45.70
6520;DHT22;3293;51.690;5.982;2022-07-06T16:28:35;23.00;45.30
6520;DHT22;3293;51.690;5.982;2022-07-06T16:33:36;22.80;45.10
6520;DHT22;3293;51.690;5.982;2022-07-06T16:38:37;22.70;46.40
6520;DHT22;3293;51.690;5.982;2022-07-06T16:43:38;22.70;47.80
6520;DHT22;3293;51.690;5.982;2022-07-06T16:48:38;22.60;47.40
6520;DHT22;3293;51.690;5.982;2022-07-06T16:53:38;22.40;48.20
6520;DHT22;3293;51.690;5.982;2022-07-06T16:58:38;22.30;50.20
6520;DHT22;3293;51.690;5.982;2022-07-06T17:03:38;22.20;49.00
6520;DHT22;3293;51.690;5.982;2022-07-06T17:08:38;22.30;49.00
6520;DHT22;3293;51.690;5.982;2022-07-06T17:13:38;22.30;48.70
6520;DHT22;3293;51.690;5.982;2022-07-06T17:18:38;22.30;50.50
6520;DHT22;3293;51.690;5.982;2022-07-06T17:23:39;22.30;49.60
6520;DHT22;3293;51.690;5.982;2022-07-06T17:28:39;22.20;51.90
6520;DHT22;3293;51.690;5.982;2022-07-06T17:33:39;22.10;54.80
6520;DHT22;3293;51.690;5.982;2022-07-06T17:38:39;22.00;56.30
6520;DHT22;3293;51.690;5.982;2022-07-06T17:43:39;22.00;58.80
6520;DHT22;3293;51.690;5.982;2022-07-06T17:48:39;21.90;60.40
6520;DHT22;3293;51.690;5.982;2022-07-06T17:53:39;21.80;63.20
6520;DHT22;3293;51.690;5.982;2022-07-06T17:58:39;21.90;66.80
6520;DHT22;3293;51.690;5.982;2022-07-06T18:03:39;21.80;66.00
6520;DHT22;3293;51.690;5.982;2022-07-06T18:08:39;21.90;69.10
6520;DHT22;3293;51.690;5.982;2022-07-06T18:13:39;21.80;69.00
6520;DHT22;3293;51.690;5.982;2022-07-06T18:18:39;21.70;70.60
6520;DHT22;3293;51.690;5.982;2022-07-06T18:23:39;21.60;72.70
6520;DHT22;3293;51.690;5.982;2022-07-06T18:28:39;21.40;75.10
6520;DHT22;3293;51.690;5.982;2022-07-06T18:33:39;21.40;76.40
6520;DHT22;3293;51.690;5.982;2022-07-06T18:38:39;21.20;79.00
6520;DHT22;3293;51.690;5.982;2022-07-06T18:43:39;21.10;81.10
6520;DHT22;3293;51.690;5.982;2022-07-06T18:48:39;21.00;81.80
6520;DHT22;3293;51.690;5.982;2022-07-06T18:53:39;20.90;82.70
6520;DHT22;3293;51.690;5.982;2022-07-06T18:58:39;20.80;84.50
6520;DHT22;3293;51.690;5.982;2022-07-06T19:03:39;20.70;86.50
6520;DHT22;3293;51.690;5.982;2022-07-06T19:08:41;20.60;86.80
6520;DHT22;3293;51.690;5.982;2022-07-06T19:13:41;20.50;86.80
6520;DHT22;3293;51.690;5.982;2022-07-06T19:18:41;20.30;88.00
6520;DHT22;3293;51.690;5.982;2022-07-06T19:23:41;20.20;90.00
6520;DHT22;3293;51.690;5.982;2022-07-06T19:28:41;20.10;90.40
6520;DHT22;3293;51.690;5.982;2022-07-06T19:33:41;20.10;91.30
6520;DHT22;3293;51.690;5.982;2022-07-06T19:38:41;20.00;91.30
6520;DHT22;3293;51.690;5.982;2022-07-06T19:43:42;20.00;90.70
6520;DHT22;3293;51.690;5.982;2022-07-06T19:48:42;19.90;90.60
6520;DHT22;3293;51.690;5.982;2022-07-06T19:53:42;19.80;91.00
6520;DHT22;3293;51.690;5.982;2022-07-06T19:58:43;19.70;91.50
6520;DHT22;3293;51.690;5.982;2022-07-06T20:03:43;19.70;91.90
6520;DHT22;3293;51.690;5.982;2022-07-06T20:08:43;19.60;91.70
6520;DHT22;3293;51.690;5.982;2022-07-06T20:13:43;19.60;90.70
6520;DHT22;3293;51.690;5.982;2022-07-06T20:18:43;19.60;90.70
6520;DHT22;3293;51.690;5.982;2022-07-06T20:23:43;19.50;91.00
6520;DHT22;3293;51.690;5.982;2022-07-06T20:28:43;19.60;91.30
6520;DHT22;3293;51.690;5.982;2022-07-06T20:33:43;19.50;91.40
6520;DHT22;3293;51.690;5.982;2022-07-06T20:38:43;19.40;92.20
6520;DHT22;3293;51.690;5.982;2022-07-06T20:43:43;19.40;93.70
6520;DHT22;3293;51.690;5.982;2022-07-06T20:48:44;19.30;94.20
6520;DHT22;3293;51.690;5.982;2022-07-06T20:53:44;19.30;94.70
6520;DHT22;3293;51.690;5.982;2022-07-06T20:58:45;19.30;95.10
6520;DHT22;3293;51.690;5.982;2022-07-06T21:03:45;19.20;95.50
6520;DHT22;3293;51.690;5.982;2022-07-06T21:08:45;19.20;96.30
6520;DHT22;3293;51.690;5.982;2022-07-06T21:13:46;19.20;97.10
6520;DHT22;3293;51.690;5.982;2022-07-06T21:18:46;19.20;98.00
6520;DHT22;3293;51.690;5.982;2022-07-06T21:23:47;19.10;99.20
6520;DHT22;3293;51.690;5.982;2022-07-06T21:28:47;19.00;99.90
6520;DHT22;3293;51.690;5.982;2022-07-06T21:33:47;18.90;99.90
6520;DHT22;3293;51.690;5.982;2022-07-06T21:38:47;18.80;99.90
6520;DHT22;3293;51.690;5.982;2022-07-06T21:43:47;18.70;99.90
6520;DHT22;3293;51.690;5.982;2022-07-06T21:48:47;18.60;99.90
6520;DHT22;3293;51.690;5.982;2022-07-06T21:53:47;18.60;99.90
6520;DHT22;3293;51.690;5.982;2022-07-06T21:58:47;18.50;99.90
6520;DHT22;3293;51.690;5.982;2022-07-06T22:03:48;18.60;99.90
6520;DHT22;3293;51.690;5.982;2022-07-06T22:08:47;18.60;99.90
6520;DHT22;3293;51.690;5.982;2022-07-06T22:13:47;18.60;99.90
6520;DHT22;3293;51.690;5.982;2022-07-06T22:18:48;18.60;99.90
6520;DHT22;3293;51.690;5.982;2022-07-06T22:23:50;18.60;99.90
6520;DHT22;3293;51.690;5.982;2022-07-06T22:28:50;18.60;99.90
6520;DHT22;3293;51.690;5.982;2022-07-06T22:33:50;18.50;99.90
6520;DHT22;3293;51.690;5.982;2022-07-06T22:38:51;18.50;99.90
6520;DHT22;3293;51.690;5.982;2022-07-06T22:43:51;18.40;99.90
6520;DHT22;3293;51.690;5.982;2022-07-06T22:48:51;18.50;99.90
6520;DHT22;3293;51.690;5.982;2022-07-06T22:53:52;18.40;99.90
6520;DHT22;3293;51.690;5.982;2022-07-06T22:58:53;18.30;99.90
6520;DHT22;3293;51.690;5.982;2022-07-06T23:03:53;18.20;99.90
6520;DHT22;3293;51.690;5.982;2022-07-06T23:08:54;18.10;99.90
6520;DHT22;3293;51.690;5.982;2022-07-06T23:13:54;18.10;99.90
6520;DHT22;3293;51.690;5.982;2022-07-06T23:18:54;18.10;99.90
6520;DHT22;3293;51.690;5.982;2022-07-06T23:23:54;18.00;99.90
6520;DHT22;3293;51.690;5.982;2022-07-06T23:28:54;18.00;99.90
6520;DHT22;3293;51.690;5.982;2022-07-06T23:33:54;17.90;99.90
6520;DHT22;3293;51.690;5.982;2022-07-06T23:38:54;17.90;99.90
6520;DHT22;3293;51.690;5.982;2022-07-06T23:43:54;17.90;99.90
6520;DHT22;3293;51.690;5.982;2022-07-06T23:48:54;18.00;99.90
6520;DHT22;3293;51.690;5.982;2022-07-06T23:53:54;18.00;99.90
6520;DHT22;3293;51.690;5.982;2022-07-06T23:58:54;18.10;99.90
